Time;durP1;ratioP1;P1;durP2;ratioP2;P2;SDS_P1;SDS_P2;PMS_P1;PMS_P2;Temp;Humidity;BMP_temperature;BMP_pressure;BME280_temperature;BME280_humidity;BME280_pressure;Samples;Min_cycle;Max_cycle;Signal;HPM_P1;HPM_P2
2023/05/30 00:01:13;;;;;;;19.73;9.20;;;;;;;15.64;100.00;92604.22;4933244;29;20445;-75
2023/05/30 00:03:39;;;;;;;19.33;9.25;;;;;;;15.59;100.00;92600.66;4934173;29;20095;-75
2023/05/30 00:06:05;;;;;;;20.17;9.30;;;;;;;15.59;100.00;92608.56;4934936;29;20035;-75
2023/05/30 00:08:31;;;;;;;18.58;8.70;;;;;;;15.56;100.00;92605.81;4935100;29;20205;-75
2023/05/30 00:10:57;;;;;;;23.88;9.73;;;;;;;15.54;100.00;92603.47;4933559;29;20115;-75
2023/05/30 00:13:22;;;;;;;26.17;9.73;;;;;;;15.53;100.00;92609.81;4925199;29;20043;-75
2023/05/30 00:15:49;;;;;;;17.05;9.35;;;;;;;15.52;100.00;92605.63;4934261;29;20062;-75
2023/05/30 00:18:14;;;;;;;22.80;9.57;;;;;;;15.52;100.00;92605.63;4934964;29;20031;-75
2023/05/30 00:20:44;;;;;;;19.30;8.75;;;;;;;15.49;100.00;92611.56;4929576;29;20068;-75
2023/05/30 00:23:10;;;;;;;19.70;9.95;;;;;;;15.47;100.00;92613.72;4926991;29;20036;-75
2023/05/30 00:25:37;;;;;;;20.65;9.65;;;;;;;15.46;100.00;92619.31;4934418;29;20449;-76
2023/05/30 00:28:06;;;;;;;20.98;9.40;;;;;;;15.44;100.00;92618.84;4933991;29;20103;-76
2023/05/30 00:30:33;;;;;;;20.00;9.68;;;;;;;15.42;100.00;92619.13;4933252;29;20071;-76
2023/05/30 00:33:01;;;;;;;20.17;9.80;;;;;;;15.40;100.00;92611.56;4932982;29;20415;-76
2023/05/30 00:35:27;;;;;;;19.42;8.82;;;;;;;15.40;100.00;92626.59;4943279;28;20028;-76
2023/05/30 00:37:52;;;;;;;21.13;9.75;;;;;;;15.35;100.00;92616.19;4928496;29;20062;-76
2023/05/30 00:40:18;;;;;;;22.63;9.73;;;;;;;15.32;100.00;92608.94;4929329;29;20047;-75
2023/05/30 00:42:43;;;;;;;22.63;10.27;;;;;;;15.26;100.00;92607.53;4921697;29;20047;-76
2023/05/30 00:45:09;;;;;;;21.27;10.75;;;;;;;15.24;100.00;92607.06;4933144;29;20109;-76
2023/05/30 00:47:36;;;;;;;25.27;9.82;;;;;;;15.17;100.00;92613.56;4910465;29;20047;-76
2023/05/30 00:50:02;;;;;;;22.15;9.93;;;;;;;15.17;100.00;92624.13;4932144;29;20481;-76
2023/05/30 00:52:29;;;;;;;24.25;10.15;;;;;;;15.17;100.00;92628.63;4930956;29;20079;-76
2023/05/30 00:54:55;;;;;;;19.48;9.55;;;;;;;15.16;100.00;92625.22;4933168;29;20043;-76
2023/05/30 00:57:20;;;;;;;22.08;9.65;;;;;;;15.17;100.00;92628.63;4942468;29;20102;-76
2023/05/30 00:59:48;;;;;;;18.88;9.18;;;;;;;15.16;100.00;92627.09;4933462;29;20553;-76
2023/05/30 01:02:16;;;;;;;19.20;9.70;;;;;;;15.15;100.00;92617.59;4927495;29;20091;-76
2023/05/30 01:04:41;;;;;;;18.52;9.60;;;;;;;15.12;100.00;92623.50;4948477;28;20067;-76
2023/05/30 01:07:10;;;;;;;23.05;9.88;;;;;;;15.11;100.00;92622.75;4932558;29;20043;-76
2023/05/30 01:09:37;;;;;;;25.80;10.13;;;;;;;15.10;100.00;92620.41;4933549;29;20434;-76
2023/05/30 01:12:22;;;;;;;22.60;9.82;;;;;;;15.08;100.00;92625.97;4947432;29;20038;-76
2023/05/30 01:15:12;;;;;;;18.73;9.55;;;;;;;15.05;100.00;92628.47;4933041;29;20030;-76
2023/05/30 01:18:03;;;;;;;25.23;9.00;;;;;;;15.02;100.00;92624.59;4928892;29;20371;-76
2023/05/30 01:20:35;;;;;;;19.17;9.32;;;;;;;14.99;100.00;92620.72;4925667;29;20035;-76
2023/05/30 01:23:20;;;;;;;20.27;9.90;;;;;;;14.96;100.00;92629.25;4931933;29;20131;-76
2023/05/30 01:26:28;;;;;;;21.48;9.60;;;;;;;14.90;100.00;92629.69;4941308;29;20043;-76
2023/05/30 01:28:55;;;;;;;20.92;8.85;;;;;;;14.89;100.00;92628.16;4945255;29;20046;-76
2023/05/30 01:31:23;;;;;;;18.67;9.75;;;;;;;14.89;100.00;92638.69;4932786;29;20134;-76
2023/05/30 01:33:49;;;;;;;22.60;10.15;;;;;;;14.94;100.00;92638.53;4937210;29;20102;-76
2023/05/30 01:36:15;;;;;;;16.95;8.93;;;;;;;14.95;100.00;92635.59;4932490;29;20035;-76
2023/05/30 01:38:40;;;;;;;19.30;9.48;;;;;;;14.88;100.00;92637.13;4926853;29;20035;-76
2023/05/30 01:41:38;;;;;;;21.33;9.93;;;;;;;14.83;100.00;92632.03;4932953;29;20048;-76
2023/05/30 01:44:38;;;;;;;20.48;9.85;;;;;;;14.80;100.00;92640.56;4921030;29;20193;-75
2023/05/30 01:47:03;;;;;;;20.58;9.35;;;;;;;14.81;100.00;92642.88;4926395;29;20518;-76
2023/05/30 01:49:50;;;;;;;19.95;9.23;;;;;;;14.83;100.00;92640.69;4928286;29;20459;-76
2023/05/30 01:52:21;;;;;;;18.48;9.10;;;;;;;15.06;100.00;92643.19;4927613;29;20490;-76
2023/05/30 01:54:54;;;;;;;22.02;9.88;;;;;;;14.97;100.00;92643.19;4932779;29;20031;-76
2023/05/30 01:57:20;;;;;;;18.20;9.15;;;;;;;14.84;100.00;92642.25;4946192;29;20142;-76
2023/05/30 01:59:47;;;;;;;21.35;10.20;;;;;;;14.78;100.00;92649.53;4945763;29;20036;-76
2023/05/30 02:02:13;;;;;;;20.73;9.88;;;;;;;14.76;100.00;92651.69;4937011;29;20071;-76
2023/05/30 02:04:39;;;;;;;19.35;9.90;;;;;;;14.75;100.00;92655.41;4920318;29;20063;-76
2023/05/30 02:07:05;;;;;;;23.92;9.40;;;;;;;14.75;100.00;92644.13;4925103;29;20122;-76
2023/05/30 02:09:31;;;;;;;21.92;10.18;;;;;;;14.74;100.00;92648.59;4929938;29;20039;-76
2023/05/30 02:11:57;;;;;;;18.15;9.57;;;;;;;14.75;100.00;92644.88;4928490;29;20107;-76
2023/05/30 02:14:22;;;;;;;22.73;9.98;;;;;;;14.79;100.00;92645.03;4927621;29;20116;-76
2023/05/30 02:16:49;;;;;;;25.52;9.55;;;;;;;14.87;100.00;92659.31;4928364;29;20553;-76
2023/05/30 02:19:16;;;;;;;25.50;9.80;;;;;;;14.82;100.00;92656.84;4923605;29;20032;-76
2023/05/30 02:21:42;;;;;;;23.13;10.80;;;;;;;14.86;100.00;92649.84;4924173;29;20043;-76
2023/05/30 02:24:08;;;;;;;23.63;10.18;;;;;;;14.81;100.00;92655.28;4929603;29;20039;-75
2023/05/30 02:26:35;;;;;;;24.60;10.60;;;;;;;14.73;100.00;92651.53;4930957;29;20438;-76
2023/05/30 02:29:01;;;;;;;22.10;10.55;;;;;;;14.67;100.00;92648.25;4939966;29;20052;-76
2023/05/30 02:31:27;;;;;;;22.42;9.93;;;;;;;14.66;100.00;92654.63;4928170;29;20035;-76
2023/05/30 02:33:52;;;;;;;23.52;9.95;;;;;;;14.65;100.00;92650.44;4925043;29;20040;-76
2023/05/30 02:36:18;;;;;;;22.92;10.32;;;;;;;14.62;100.00;92643.16;4915485;29;20494;-76
2023/05/30 02:38:44;;;;;;;22.55;10.23;;;;;;;14.64;100.00;92640.22;4924497;29;20055;-76
2023/05/30 02:41:10;;;;;;;23.20;10.05;;;;;;;14.65;100.00;92639.88;4924408;29;20154;-76
2023/05/30 02:43:36;;;;;;;21.85;10.23;;;;;;;14.64;100.00;92630.44;4930348;29;20087;-76
2023/05/30 02:46:04;;;;;;;19.90;10.27;;;;;;;14.62;100.00;92629.22;4942461;29;20043;-76
2023/05/30 02:48:31;;;;;;;26.42;11.00;;;;;;;14.59;100.00;92625.34;4930400;29;20410;-76
2023/05/30 02:50:58;;;;;;;23.05;10.48;;;;;;;14.59;100.00;92630.59;4929962;29;20525;-76
2023/05/30 02:53:24;;;;;;;24.55;10.90;;;;;;;14.55;100.00;92632.28;4918025;29;20418;-76
2023/05/30 02:55:51;;;;;;;26.52;9.57;;;;;;;14.53;100.00;92622.03;4939636;29;20505;-76
2023/05/30 02:58:40;;;;;;;25.08;10.32;;;;;;;14.50;100.00;92614.75;4930263;29;20056;-76
2023/05/30 03:01:23;;;;;;;22.15;10.57;;;;;;;14.47;100.00;92617.19;4931412;29;20040;-76
2023/05/30 03:03:49;;;;;;;24.92;10.15;;;;;;;14.42;100.00;92622.63;4918466;29;20040;-76
2023/05/30 03:06:24;;;;;;;25.40;10.05;;;;;;;14.35;100.00;92615.16;4934323;29;20501;-76
2023/05/30 03:09:08;;;;;;;20.83;10.13;;;;;;;14.29;100.00;92619.78;4934405;29;20516;-76
2023/05/30 03:11:35;;;;;;;23.73;10.25;;;;;;;14.23;100.00;92618.38;4934291;29;20055;-76
2023/05/30 03:14:00;;;;;;;22.73;10.25;;;;;;;14.20;100.00;92618.97;4934895;29;20040;-76
2023/05/30 03:16:26;;;;;;;21.15;9.93;;;;;;;14.18;100.00;92617.72;4915851;29;20040;-76
2023/05/30 03:18:54;;;;;;;21.02;9.82;;;;;;;14.15;100.00;92611.22;4949573;29;20068;-76
2023/05/30 03:21:21;;;;;;;21.20;10.30;;;;;;;14.12;100.00;92619.75;4934344;29;20046;-75
2023/05/30 03:23:49;;;;;;;20.83;9.90;;;;;;;14.08;100.00;92621.44;4933635;29;20052;-76
2023/05/30 03:26:16;;;;;;;21.83;9.82;;;;;;;14.04;100.00;92609.94;4949711;29;20047;-76
2023/05/30 03:28:43;;;;;;;21.48;9.63;;;;;;;14.02;100.00;92622.63;4929525;29;20179;-76
2023/05/30 03:31:18;;;;;;;21.23;10.45;;;;;;;14.00;100.00;92609.00;4932095;29;20247;-76
2023/05/30 03:33:47;;;;;;;17.90;9.35;;;;;;;13.99;100.00;92602.97;4930176;29;20067;-76
2023/05/30 03:36:13;;;;;;;24.75;9.60;;;;;;;13.95;100.00;92608.03;4949761;29;20031;-76
2023/05/30 03:38:39;;;;;;;19.27;9.10;;;;;;;13.90;100.00;92608.19;4941347;29;20512;-75
2023/05/30 03:41:05;;;;;;;24.55;9.93;;;;;;;13.89;100.00;92613.75;4946750;29;20044;-76
2023/05/30 03:43:31;;;;;;;23.88;10.30;;;;;;;13.88;100.00;92607.72;4949270;29;20039;-76
2023/05/30 03:45:56;;;;;;;23.83;10.13;;;;;;;13.88;100.00;92606.94;4927438;29;20375;-76
2023/05/30 03:48:22;;;;;;;22.13;10.48;;;;;;;13.86;100.00;92604.59;4933621;29;20050;-76
2023/05/30 03:50:48;;;;;;;22.60;9.85;;;;;;;13.84;100.00;92606.75;4928938;29;20047;-76
2023/05/30 03:53:13;;;;;;;22.58;10.18;;;;;;;13.84;100.00;92606.75;4924205;29;20035;-76
2023/05/30 03:55:39;;;;;;;22.17;10.15;;;;;;;13.84;100.00;92606.75;4933606;29;20063;-76
2023/05/30 03:58:05;;;;;;;20.95;10.02;;;;;;;13.84;100.00;92603.34;4913905;29;20158;-75
2023/05/30 04:00:31;;;;;;;19.55;9.40;;;;;;;13.82;100.00;92601.03;4933527;29;20173;-75
2023/05/30 04:03:00;;;;;;;25.23;10.23;;;;;;;13.84;100.00;92609.38;4933983;29;20055;-75
2023/05/30 04:05:26;;;;;;;17.60;9.70;;;;;;;13.81;100.00;92606.59;4933814;29;20028;-75
2023/05/30 04:07:52;;;;;;;19.83;10.02;;;;;;;13.78;100.00;92602.72;4932152;29;20035;-75
2023/05/30 04:10:18;;;;;;;24.90;9.88;;;;;;;13.77;100.00;92608.28;4932049;29;20039;-75
2023/05/30 04:12:43;;;;;;;19.35;10.15;;;;;;;13.76;100.00;92610.13;4949622;28;20514;-75
2023/05/30 04:15:10;;;;;;;19.77;9.88;;;;;;;13.78;100.00;92609.81;4931048;29;20036;-74
2023/05/30 04:17:36;;;;;;;18.75;9.52;;;;;;;13.80;100.00;92612.94;4947949;29;20518;-75
2023/05/30 04:20:04;;;;;;;20.95;10.25;;;;;;;13.83;100.00;92615.75;4932560;29;20051;-75
2023/05/30 04:22:32;;;;;;;21.67;10.30;;;;;;;13.84;100.00;92611.25;4930370;29;20139;-75
2023/05/30 04:24:59;;;;;;;22.20;10.90;;;;;;;13.84;100.00;92616.50;4929537;29;20155;-75
2023/05/30 04:27:24;;;;;;;22.52;10.02;;;;;;;13.84;100.00;92617.28;4946156;29;20541;-74
2023/05/30 04:29:50;;;;;;;21.33;10.15;;;;;;;13.86;100.00;92615.13;4933039;29;20038;-75
2023/05/30 04:32:17;;;;;;;21.05;9.88;;;;;;;13.90;100.00;92617.94;4945409;29;20039;-75
2023/05/30 04:34:43;;;;;;;17.88;9.15;;;;;;;13.86;100.00;92611.72;4931841;29;20059;-75
2023/05/30 04:37:11;;;;;;;24.65;10.60;;;;;;;13.93;100.00;92618.09;4938337;29;20042;-75
2023/05/30 04:39:38;;;;;;;22.05;10.50;;;;;;;13.97;100.00;92622.78;4930658;29;20042;-74
2023/05/30 04:42:05;;;;;;;24.38;11.13;;;;;;;14.01;100.00;92621.09;4932420;29;20040;-79
2023/05/30 04:44:37;;;;;;;23.48;10.35;;;;;;;14.08;100.00;92621.44;4935310;29;20127;-78
2023/05/30 04:47:07;;;;;;;20.70;10.40;;;;;;;14.16;100.00;92620.66;4928504;29;20585;-79
2023/05/30 04:49:33;;;;;;;21.92;10.20;;;;;;;14.22;100.00;92626.59;4938079;29;20047;-80
2023/05/30 04:52:00;;;;;;;19.70;9.48;;;;;;;14.30;100.00;92631.09;4920504;29;20058;-78
2023/05/30 04:54:27;;;;;;;24.15;11.02;;;;;;;14.37;100.00;92623.53;4951917;29;20038;-81
2023/05/30 04:56:53;;;;;;;19.25;9.55;;;;;;;14.45;100.00;92625.41;4936073;29;20383;-80
2023/05/30 04:59:18;;;;;;;22.33;10.38;;;;;;;14.52;100.00;92635.50;4930634;29;20138;-81
2023/05/30 05:01:44;;;;;;;19.83;10.57;;;;;;;14.57;100.00;92630.91;4939111;29;20114;-81
2023/05/30 05:04:10;;;;;;;20.60;10.05;;;;;;;14.68;100.00;92626.13;4936201;29;20086;-81
2023/05/30 05:06:36;;;;;;;18.95;9.73;;;;;;;14.75;100.00;92626.44;4937850;29;20038;-81
2023/05/30 05:09:02;;;;;;;19.23;10.20;;;;;;;14.85;100.00;92627.22;4937561;29;20064;-80
2023/05/30 05:11:27;;;;;;;20.98;9.23;;;;;;;14.96;100.00;92631.09;4937371;29;20028;-79
2023/05/30 05:13:53;;;;;;;21.88;10.20;;;;;;;15.07;100.00;92632.34;4931080;29;20490;-78
2023/05/30 05:16:18;;;;;;;19.95;10.13;;;;;;;15.14;100.00;92624.75;4937373;29;20067;-79
2023/05/30 05:18:44;;;;;;;19.30;10.15;;;;;;;15.25;100.00;92629.72;4938039;29;20040;-78
2023/05/30 05:21:10;;;;;;;23.35;9.98;;;;;;;15.31;100.00;92629.25;4939020;29;20097;-78
2023/05/30 05:23:35;;;;;;;21.40;10.40;;;;;;;15.39;100.00;92625.06;4932982;29;20791;-79
2023/05/30 05:26:01;;;;;;;23.55;10.68;;;;;;;15.49;100.00;92624.75;4935443;29;20155;-79
2023/05/30 05:28:27;;;;;;;22.48;10.75;;;;;;;15.57;100.00;92625.81;4938677;29;20040;-79
2023/05/30 05:30:53;;;;;;;26.48;10.20;;;;;;;15.66;100.00;92620.50;4934661;29;20119;-79
2023/05/30 05:33:19;;;;;;;20.65;9.77;;;;;;;15.73;100.00;92620.84;4932252;29;20040;-78
2023/05/30 05:35:48;;;;;;;20.20;9.80;;;;;;;15.83;100.00;92633.72;4934562;29;20043;-80
2023/05/30 05:38:14;;;;;;;23.70;9.73;;;;;;;15.94;100.00;92624.34;4937843;29;20058;-79
2023/05/30 05:40:41;;;;;;;21.38;9.63;;;;;;;16.06;100.00;92623.69;4939546;29;20043;-79
2023/05/30 05:43:06;;;;;;;26.40;10.35;;;;;;;16.18;100.00;92623.03;4935000;29;20042;-79
2023/05/30 05:45:32;;;;;;;17.13;8.82;;;;;;;16.30;100.00;92630.28;4936290;29;20032;-79
2023/05/30 05:47:57;;;;;;;19.52;9.70;;;;;;;16.41;100.00;92632.25;4937912;29;20024;-79
2023/05/30 05:50:23;;;;;;;25.50;11.00;;;;;;;16.52;100.00;92639.81;4940691;29;20176;-79
2023/05/30 05:52:49;;;;;;;18.45;9.55;;;;;;;16.68;100.00;92632.09;4939993;29;20061;-79
2023/05/30 05:55:14;;;;;;;21.15;9.50;;;;;;;16.77;100.00;92635.47;4940472;29;20024;-80
2023/05/30 05:57:40;;;;;;;21.15;10.20;;;;;;;16.74;100.00;92639.53;4939512;29;20086;-79
2023/05/30 06:00:06;;;;;;;19.83;9.30;;;;;;;16.88;100.00;92639.31;4938957;29;20119;-80
2023/05/30 06:02:38;;;;;;;21.15;9.63;;;;;;;16.87;100.00;92642.31;4938998;29;20047;-80
2023/05/30 06:05:04;;;;;;;21.60;10.73;;;;;;;17.00;100.00;92636.75;4932009;29;20039;-80
2023/05/30 06:07:29;;;;;;;24.00;10.50;;;;;;;17.18;100.00;92637.41;4939840;29;20505;-79
2023/05/30 06:09:56;;;;;;;18.65;9.10;;;;;;;17.37;100.00;92644.13;4937090;29;20070;-79
2023/05/30 06:12:21;;;;;;;19.60;9.98;;;;;;;17.57;100.00;92643.31;4927010;29;20032;-80
2023/05/30 06:14:47;;;;;;;17.20;9.20;;;;;;;17.85;100.00;92642.75;4931214;29;20035;-80
2023/05/30 06:17:12;;;;;;;18.45;9.60;;;;;;;18.09;100.00;92645.47;4933039;29;20152;-79
2023/05/30 06:19:38;;;;;;;25.60;10.68;;;;;;;18.10;100.00;92649.69;4938159;29;20048;-80
2023/05/30 06:22:04;;;;;;;21.52;9.85;;;;;;;18.17;100.00;92643.84;4938308;29;20042;-80
2023/05/30 06:24:30;;;;;;;24.33;10.07;;;;;;;17.87;100.00;92637.91;4951537;28;20040;-79
2023/05/30 06:26:56;;;;;;;22.55;10.75;;;;;;;17.82;100.00;92648.72;4928143;29;20111;-78
2023/05/30 06:29:21;;;;;;;19.35;10.15;;;;;;;17.46;100.00;92652.75;4930687;29;20035;-79
2023/05/30 06:31:47;;;;;;;24.70;10.18;;;;;;;17.21;100.00;92647.34;4934672;29;20123;-79
2023/05/30 06:34:12;;;;;;;20.92;9.25;;;;;;;17.37;100.00;92646.75;4936067;29;20042;-79
2023/05/30 06:36:38;;;;;;;21.13;10.35;;;;;;;17.20;100.00;92653.75;4933511;29;20036;-80
2023/05/30 06:39:03;;;;;;;19.35;10.15;;;;;;;16.99;100.00;92659.00;4926801;29;20043;-79
2023/05/30 06:41:29;;;;;;;22.27;9.68;;;;;;;16.84;100.00;92660.34;4927671;29;20036;-80
2023/05/30 06:43:55;;;;;;;19.58;10.43;;;;;;;16.88;100.00;92660.47;4939423;29;20036;-80
2023/05/30 06:46:20;;;;;;;21.60;9.75;;;;;;;16.98;100.00;92660.09;4935412;29;20047;-80
2023/05/30 06:48:46;;;;;;;23.77;10.07;;;;;;;17.05;100.00;92660.38;4929994;29;20044;-80
2023/05/30 06:51:12;;;;;;;19.75;9.93;;;;;;;17.06;100.00;92650.56;4932689;29;20054;-80
2023/05/30 06:53:37;;;;;;;22.77;10.52;;;;;;;17.19;100.00;92652.19;4937610;29;20099;-79
2023/05/30 06:56:04;;;;;;;29.08;10.85;;;;;;;17.31;100.00;92653.34;4932928;29;20072;-79
2023/05/30 06:58:29;;;;;;;22.35;10.45;;;;;;;17.39;100.00;92653.28;4938851;29;20086;-79
2023/05/30 07:00:55;;;;;;;17.50;9.13;;;;;;;17.64;100.00;92654.16;4936445;29;20028;-79
2023/05/30 07:03:20;;;;;;;22.48;10.20;;;;;;;17.66;100.00;92654.59;4935071;29;20530;-79
2023/05/30 07:05:46;;;;;;;35.28;10.38;;;;;;;17.53;100.00;92653.00;4935692;29;20067;-79
2023/05/30 07:08:11;;;;;;;23.25;10.27;;;;;;;17.49;100.00;92652.09;4939483;29;20042;-79
2023/05/30 07:10:37;;;;;;;22.30;9.57;;;;;;;17.47;100.00;92655.09;4934824;29;20389;-79
2023/05/30 07:13:02;;;;;;;23.13;9.93;;;;;;;17.25;100.00;92655.41;4936905;29;20031;-80
2023/05/30 07:15:31;;;;;;;24.63;9.82;;;;;;;17.15;100.00;92661.84;4938362;29;20469;-79
2023/05/30 07:17:57;;;;;;;20.95;11.20;;;;;;;17.08;100.00;92663.47;4938221;29;20043;-79
2023/05/30 07:20:23;;;;;;;24.10;10.73;;;;;;;17.12;100.00;92665.16;4932948;29;20063;-78
2023/05/30 07:22:52;;;;;;;28.92;11.40;;;;;;;17.14;100.00;92662.97;4938868;29;20040;-79
2023/05/30 07:25:17;;;;;;;21.15;9.85;;;;;;;17.14;100.00;92662.19;4938620;29;20043;-79
2023/05/30 07:27:45;;;;;;;23.75;10.10;;;;;;;16.95;100.00;92662.59;4930953;29;20423;-79
2023/05/30 07:30:11;;;;;;;21.20;9.95;;;;;;;16.81;100.00;92660.97;4933573;29;20086;-80
2023/05/30 07:32:36;;;;;;;24.10;10.30;;;;;;;16.96;100.00;92659.66;4939495;29;20043;-80
2023/05/30 07:35:02;;;;;;;19.45;9.35;;;;;;;17.04;100.00;92663.31;4935452;29;20032;-79
2023/05/30 07:37:27;;;;;;;26.58;10.85;;;;;;;17.08;100.00;92664.22;4925431;29;20161;-78
2023/05/30 07:39:53;;;;;;;21.90;9.70;;;;;;;17.02;100.00;92665.50;4937469;29;20132;-78
2023/05/30 07:42:18;;;;;;;25.63;10.23;;;;;;;16.97;100.00;92668.34;4938233;29;20126;-79
2023/05/30 07:44:44;;;;;;;23.13;10.95;;;;;;;16.85;100.00;92667.19;4928212;29;20157;-79
2023/05/30 07:47:10;;;;;;;23.77;10.23;;;;;;;16.79;100.00;92660.50;4927138;29;20099;-79
2023/05/30 07:49:35;;;;;;;23.05;10.50;;;;;;;16.68;100.00;92667.22;4940445;29;20039;-79
2023/05/30 07:52:01;;;;;;;29.15;11.05;;;;;;;16.80;100.00;92654.16;4938560;29;20063;-79
2023/05/30 07:54:26;;;;;;;21.27;10.25;;;;;;;16.93;100.00;92667.44;4937884;29;20024;-79
2023/05/30 07:56:53;;;;;;;21.73;10.60;;;;;;;17.05;100.00;92665.66;4941526;29;20095;-79
2023/05/30 07:59:19;;;;;;;21.02;10.40;;;;;;;17.35;100.00;92668.25;4956565;29;20060;-79
2023/05/30 08:01:45;;;;;;;23.40;10.20;;;;;;;17.36;100.00;92666.34;4942279;29;20645;-79
2023/05/30 08:04:10;;;;;;;22.67;10.07;;;;;;;17.56;100.00;92673.53;4935587;29;20127;-79
2023/05/30 08:06:36;;;;;;;18.70;8.45;;;;;;;17.56;95.26;92668.25;4941189;29;20039;-79
2023/05/30 08:09:02;;;;;;;22.63;9.80;;;;;;;17.64;100.00;92670.03;4941105;29;20039;-79
2023/05/30 08:11:27;;;;;;;23.08;9.23;;;;;;;17.74;100.00;92670.72;4941918;29;20370;-78
2023/05/30 08:13:53;;;;;;;22.10;9.23;;;;;;;17.83;100.00;92674.09;4938941;29;20125;-79
2023/05/30 08:16:20;;;;;;;21.80;9.63;;;;;;;17.92;95.17;92674.00;4936554;29;20079;-80
2023/05/30 08:18:45;;;;;;;20.15;8.93;;;;;;;18.25;95.80;92666.78;4939224;29;20557;-80
2023/05/30 08:21:11;;;;;;;20.70;8.75;;;;;;;18.56;94.41;92664.75;4941599;29;20055;-79
2023/05/30 08:23:37;;;;;;;21.88;8.65;;;;;;;18.77;98.69;92670.72;4941690;29;20042;-79
2023/05/30 08:26:03;;;;;;;21.95;9.32;;;;;;;18.86;100.00;92674.03;4942633;29;20047;-79
2023/05/30 08:28:29;;;;;;;21.45;9.68;;;;;;;18.80;85.35;92675.38;4943569;29;20039;-80
2023/05/30 08:30:54;;;;;;;22.27;9.48;;;;;;;18.80;87.90;92674.59;4942422;29;20039;-79
2023/05/30 08:33:21;;;;;;;19.08;9.05;;;;;;;18.91;84.74;92676.47;4941751;29;20047;-79
2023/05/30 08:35:46;;;;;;;23.33;9.55;;;;;;;19.03;82.13;92677.56;4934613;29;20106;-81
2023/05/30 08:38:13;;;;;;;20.90;10.20;;;;;;;18.84;87.83;92681.53;4941756;29;20039;-79
2023/05/30 08:40:42;;;;;;;24.38;10.98;;;;;;;18.68;88.02;92673.47;4942197;29;20046;-80
2023/05/30 08:43:08;;;;;;;19.55;9.77;;;;;;;18.82;89.35;92667.84;4942755;29;20054;-81
2023/05/30 08:45:34;;;;;;;23.10;10.43;;;;;;;18.91;91.68;92663.22;4942691;29;20112;-81
2023/05/30 08:48:01;;;;;;;21.23;10.20;;;;;;;18.90;89.61;92672.28;4942633;29;20075;-81
2023/05/30 08:50:28;;;;;;;31.25;12.23;;;;;;;18.79;86.95;92668.53;4942155;29;20071;-81
2023/05/30 08:53:05;;;;;;;23.33;9.55;;;;;;;19.18;91.33;92668.91;4942257;29;20040;-79
2023/05/30 08:55:35;;;;;;;27.50;11.38;;;;;;;19.24;89.27;92656.97;4941996;29;20451;-78
2023/05/30 08:58:15;;;;;;;25.23;11.05;;;;;;;19.35;90.59;92652.72;4940400;29;20051;-78
2023/05/30 09:00:42;;;;;;;26.35;11.02;;;;;;;19.57;89.60;92650.69;4942804;29;20047;-80
2023/05/30 09:03:09;;;;;;;23.65;10.88;;;;;;;19.58;90.27;92654.88;4943753;29;20156;-79
2023/05/30 09:05:35;;;;;;;21.23;9.63;;;;;;;19.51;88.26;92649.38;4943527;29;20059;-80
2023/05/30 09:08:02;;;;;;;21.98;9.63;;;;;;;19.45;91.37;92656.03;4942338;29;20042;-78
2023/05/30 09:10:28;;;;;;;19.60;9.80;;;;;;;19.59;89.30;92651.13;4942349;29;20125;-80
2023/05/30 09:12:55;;;;;;;30.40;13.43;;;;;;;19.52;84.68;92649.03;4941296;29;20031;-78
2023/05/30 09:15:20;;;;;;;34.00;12.45;;;;;;;19.49;88.07;92640.97;4943093;29;20089;-79
2023/05/30 09:17:46;;;;;;;29.50;11.95;;;;;;;19.64;83.93;92647.44;4942456;29;20048;-79
2023/05/30 09:20:19;;;;;;;28.67;11.60;;;;;;;19.69;87.09;92634.72;4940516;29;20376;-80
2023/05/30 09:22:45;;;;;;;28.70;12.38;;;;;;;19.58;84.53;92646.91;4940942;29;20042;-81
2023/05/30 09:25:12;;;;;;;20.70;9.63;;;;;;;19.80;83.63;92640.31;4940486;29;20130;-79
2023/05/30 09:27:38;;;;;;;28.30;12.95;;;;;;;19.51;83.50;92644.81;4941309;29;20046;-80
2023/05/30 09:30:10;;;;;;;28.73;11.93;;;;;;;19.53;85.25;92637.31;4941397;29;20123;-80
2023/05/30 09:32:39;;;;;;;26.63;12.07;;;;;;;19.41;89.66;92645.31;4939958;29;20401;-79
2023/05/30 09:35:09;;;;;;;24.30;12.27;;;;;;;19.49;89.67;92639.06;4938908;29;20300;-80
2023/05/30 09:37:43;;;;;;;23.27;10.52;;;;;;;19.78;88.21;92652.41;4939348;29;20028;-78
2023/05/30 09:40:15;;;;;;;25.25;12.13;;;;;;;19.79;85.40;92646.72;4939840;29;20067;-79
2023/05/30 09:42:49;;;;;;;38.63;13.60;;;;;;;19.78;84.08;92647.84;4939304;29;20043;-80
2023/05/30 09:45:18;;;;;;;24.98;11.05;;;;;;;19.57;84.59;92653.34;4939281;29;20341;-80
2023/05/30 09:47:45;;;;;;;35.55;13.43;;;;;;;19.75;85.08;92640.56;4939973;29;20522;-80
2023/05/30 09:50:12;;;;;;;26.88;12.30;;;;;;;19.84;83.06;92643.09;4940080;29;20035;-80
2023/05/30 09:52:40;;;;;;;34.55;12.63;;;;;;;19.87;86.82;92639.75;4939618;29;20703;-80
2023/05/30 09:55:08;;;;;;;22.33;10.15;;;;;;;19.96;82.99;92648.31;4936528;29;20033;-80
2023/05/30 09:57:35;;;;;;;28.20;13.27;;;;;;;20.17;82.39;92638.25;4939287;29;20036;-81
2023/05/30 10:00:11;;;;;;;44.85;12.80;;;;;;;20.17;82.86;92640.13;4940893;29;20031;-79
2023/05/30 10:02:41;;;;;;;24.63;10.85;;;;;;;20.02;81.54;92644.31;4937636;29;20044;-79
2023/05/30 10:05:22;;;;;;;27.27;13.05;;;;;;;20.21;82.18;92638.31;4940510;29;20036;-82
2023/05/30 10:07:51;;;;;;;20.55;9.82;;;;;;;20.45;76.86;92640.06;4938719;29;20302;-80
2023/05/30 10:10:17;;;;;;;26.83;11.85;;;;;;;20.19;77.41;92637.88;4940609;29;20023;-79
2023/05/30 10:12:50;;;;;;;28.52;13.30;;;;;;;20.22;78.54;92633.78;4937738;29;20060;-80
2023/05/30 10:15:18;;;;;;;22.10;10.90;;;;;;;20.23;77.06;92632.66;4938758;29;20039;-78
2023/05/30 10:17:58;;;;;;;24.15;11.40;;;;;;;20.25;75.73;92639.19;4937473;29;20070;-78
2023/05/30 10:20:26;;;;;;;34.25;12.40;;;;;;;20.53;77.04;92636.44;4937688;29;20051;-78
2023/05/30 10:22:52;;;;;;;26.00;11.52;;;;;;;20.53;77.48;92633.00;4939281;29;20288;-78
2023/05/30 10:25:20;;;;;;;25.70;12.18;;;;;;;20.49;78.59;92632.94;4940327;29;20044;-78
2023/05/30 10:27:52;;;;;;;29.25;12.18;;;;;;;20.22;76.32;92634.56;4938984;29;20090;-78
2023/05/30 10:30:23;;;;;;;27.52;12.40;;;;;;;20.27;78.04;92630.88;4939307;29;20409;-79
2023/05/30 10:32:56;;;;;;;25.58;11.55;;;;;;;20.00;82.57;92632.47;4938257;29;20517;-77
2023/05/30 10:35:22;;;;;;;24.30;11.57;;;;;;;20.29;80.15;92621.44;4936487;29;20031;-77
2023/05/30 10:37:49;;;;;;;33.55;13.48;;;;;;;20.49;79.85;92621.50;4935533;29;20040;-78
2023/05/30 10:40:39;;;;;;;27.88;12.88;;;;;;;20.93;79.23;92624.06;4932190;29;20036;-78
2023/05/30 10:43:23;;;;;;;30.02;14.20;;;;;;;20.73;75.52;92618.69;4937218;29;20052;-78
2023/05/30 10:45:59;;;;;;;28.15;13.00;;;;;;;20.41;77.81;92623.22;4937357;29;20599;-78
2023/05/30 10:48:50;;;;;;;26.73;13.07;;;;;;;20.23;79.15;92624.69;4940040;29;20036;-79
2023/05/30 10:51:16;;;;;;;31.08;13.63;;;;;;;19.80;83.21;92629.69;4938549;29;20151;-78
2023/05/30 10:53:44;;;;;;;29.08;13.43;;;;;;;19.90;82.60;92631.06;4951424;28;20091;-78
2023/05/30 10:56:34;;;;;;;22.63;12.27;;;;;;;20.15;76.21;92623.72;4938694;29;20138;-78
2023/05/30 10:59:11;;;;;;;25.65;13.13;;;;;;;20.18;78.05;92629.16;4933332;29;20086;-78
2023/05/30 11:01:38;;;;;;;23.95;12.50;;;;;;;20.55;76.10;92628.88;4938541;29;20059;-78
2023/05/30 11:04:13;;;;;;;23.05;10.85;;;;;;;20.67;79.08;92617.44;4936767;29;20028;-78
2023/05/30 11:06:42;;;;;;;27.50;13.05;;;;;;;20.86;75.39;92607.94;4937306;29;20502;-78
2023/05/30 11:09:11;;;;;;;27.20;13.25;;;;;;;20.96;77.72;92608.19;4938874;29;20185;-79
2023/05/30 11:11:45;;;;;;;28.23;13.23;;;;;;;20.87;74.92;92610.25;4939419;29;20039;-78
2023/05/30 11:14:12;;;;;;;29.70;14.05;;;;;;;20.90;71.89;92604.25;4938872;29;20035;-79
2023/05/30 11:16:59;;;;;;;25.52;10.98;;;;;;;20.85;75.01;92617.81;4937954;29;20051;-78
2023/05/30 11:19:39;;;;;;;26.92;13.43;;;;;;;20.72;75.08;92605.75;4952482;29;20046;-78